Accueil
METAR-TAF:

METAR-TAF

Aéroports :

Aéroport de Burgos

Burgos, Espagne

latitude: 42-22N, longitude: 003-38W, altitude: 894 m

Observation

Le bulletin a été fait il y a 23 minutes, à 11:30 UTC
Vent 5 kt de sud, variant entre sud-est et sud-ouest
Température 3°C
Humidité 87%
Pression 1023 hPa
Visibilité 10 km ou plus
Nuages fragmentés à une hauteur de 500 ft

METAR: LEBG 141130Z 19005KT 140V220 9999 BKN005 03/01 Q1023

Heure: 12:53 (11:53 UTC)

Prévision

Le bulletin a été fait il y a 53 minutes, à 11:00 UTC
Prévision valable du 14 à 12 UTC au 14 à 21 UTC
Vent 5 kt de direction variable
Visibilité 10 km ou plus
Nuages épars à une hauteur de 4000 ft
Temporairement
du 14 à 12 UTC au 14 à 14 UTC
Nuages fragmentés à une hauteur de 500 ft
Evoluant progressivement
du 14 à 18 UTC au 14 à 20 UTC
Vent 10 kt de sud-ouest

TAF: LEBG 141100Z 1412/1421 VRB05KT 9999 SCT040 TEMPO 1412/1414 BKN005 BECMG 1418/1420 23010KT

Observations et prévisions météorologiques de plus de 4000 aéroports (messages METAR et TAF).

Les stations disponibles sont représentées par des disques jaunes et rouges sur la carte.

Passer la souris dessus pour voir le nom de la station.

Cliquer dessus pour voir les observations et prévisions météorologiques.

Pour changer de carte: cliquez sur les boutons verts avec une croix noire pour zoomer, sur le bouton vert avec un tiret pour effectuer un zoom arrière, ou sur les flèches vertes pour les cartes adjacentes.


METAR-TAF: